createdAt,value
2019-05-06T00:00:51.911Z,3.50
2019-05-06T00:03:10.993Z,3.60
2019-05-06T00:05:41.112Z,3.60
2019-05-06T00:08:11.314Z,3.50
2019-05-06T00:10:41.471Z,3.40
2019-05-06T00:13:13.917Z,3.30
2019-05-06T00:15:43.657Z,3.30
2019-05-06T00:18:14.034Z,3.30
2019-05-06T00:20:44.172Z,3.30
2019-05-06T00:23:25.794Z,3.30
2019-05-06T00:26:14.066Z,3.20
2019-05-06T00:28:56.163Z,3.20
2019-05-06T00:31:26.432Z,3.20
2019-05-06T00:33:56.540Z,3.10
2019-05-06T00:36:26.610Z,3.00
2019-05-06T00:39:00.017Z,3.00
2019-05-06T00:41:35.913Z,3.00
2019-05-06T00:44:04.260Z,3.00
2019-05-06T00:46:34.606Z,3.00
2019-05-06T00:49:04.822Z,3.00
2019-05-06T00:51:34.875Z,2.90
2019-05-06T00:54:14.326Z,2.90
2019-05-06T00:56:44.774Z,2.80
2019-05-06T00:59:15.070Z,2.90
2019-05-06T01:01:45.298Z,2.80
2019-05-06T01:04:15.449Z,2.80
2019-05-06T01:06:45.606Z,2.70
2019-05-06T01:09:18.958Z,2.60
2019-05-06T01:11:51.318Z,2.60
2019-05-06T01:14:30.466Z,2.50
2019-05-06T01:17:00.682Z,2.50
2019-05-06T01:19:30.902Z,2.50
2019-05-06T01:22:00.987Z,2.60
2019-05-06T01:24:31.165Z,2.60
2019-05-06T01:27:01.346Z,2.60
2019-05-06T01:29:31.980Z,2.60
2019-05-06T01:32:03.659Z,2.50
2019-05-06T01:34:34.178Z,2.50
2019-05-06T01:37:04.477Z,2.50
2019-05-06T01:39:43.589Z,2.50
2019-05-06T01:42:21.099Z,2.50
2019-05-06T01:44:51.326Z,2.50
2019-05-06T01:47:23.643Z,2.40
2019-05-06T01:49:53.857Z,2.40
2019-05-06T01:52:24.213Z,2.20
2019-05-06T01:54:54.514Z,2.00
2019-05-06T01:57:24.585Z,1.90
2019-05-06T01:59:54.743Z,1.90
2019-05-06T02:02:24.986Z,2.00
2019-05-06T02:04:55.073Z,1.90
2019-05-06T02:07:25.243Z,1.80
2019-05-06T02:10:07.458Z,1.80
2019-05-06T02:12:37.587Z,1.90
2019-05-06T02:15:07.806Z,1.80
2019-05-06T02:17:38.029Z,1.60
2019-05-06T02:20:09.201Z,1.40
2019-05-06T02:23:04.358Z,1.30
2019-05-06T02:25:41.562Z,1.20
2019-05-06T02:28:11.685Z,1.00
2019-05-06T02:31:05.556Z,1.00
2019-05-06T02:34:06.804Z,1.00
2019-05-06T02:37:06.253Z,0.90
2019-05-06T02:39:36.815Z,1.00
2019-05-06T02:42:08.137Z,1.10
2019-05-06T02:44:38.300Z,1.10
2019-05-06T02:47:26.359Z,1.10
2019-05-06T02:49:59.783Z,1.10
2019-05-06T02:52:32.761Z,1.20
2019-05-06T02:55:01.891Z,1.30
2019-05-06T02:57:33.485Z,1.30
2019-05-06T03:00:05.313Z,1.30
2019-05-06T03:02:43.229Z,1.40
2019-05-06T03:05:08.767Z,1.40
2019-05-06T03:07:38.914Z,1.20
2019-05-06T03:10:13.117Z,1.20
2019-05-06T03:12:43.325Z,1.30
2019-05-06T03:15:16.619Z,1.40
2019-05-06T03:17:45.396Z,1.40
2019-05-06T03:20:26.303Z,1.50
2019-05-06T03:23:03.704Z,1.40
2019-05-06T03:25:35.624Z,1.50
2019-05-06T03:28:05.828Z,1.50
2019-05-06T03:30:36.616Z,1.50
2019-05-06T03:35:52.300Z,1.40
2019-05-06T03:38:13.743Z,1.40
2019-05-06T03:40:45.825Z,1.40
2019-05-06T03:43:16.060Z,1.40
2019-05-06T03:46:00.079Z,1.50
2019-05-06T03:48:33.599Z,1.70
2019-05-06T03:51:04.266Z,1.90
2019-05-06T03:53:36.675Z,2.10
2019-05-06T03:56:06.766Z,2.30
2019-05-06T03:58:37.844Z,2.40
2019-05-06T04:01:08.084Z,2.50
2019-05-06T04:03:46.982Z,2.70
2019-05-06T04:06:13.535Z,2.80
2019-05-06T04:08:43.682Z,2.90
2019-05-06T04:11:17.795Z,2.90
2019-05-06T04:13:49.108Z,3.00
2019-05-06T04:16:34.017Z,3.00
2019-05-06T04:19:13.038Z,3.10
2019-05-06T04:21:53.169Z,3.20
2019-05-06T04:24:53.969Z,3.10
2019-05-06T04:27:36.118Z,3.10
2019-05-06T04:30:06.419Z,3.20
2019-05-06T04:32:36.710Z,3.30
2019-05-06T04:35:07.328Z,3.30
2019-05-06T04:37:37.632Z,3.40
2019-05-06T04:40:08.467Z,3.50
2019-05-06T04:42:38.873Z,3.50
2019-05-06T04:45:09.212Z,3.60
2019-05-06T04:47:39.419Z,3.70
2019-05-06T04:50:09.580Z,3.70
2019-05-06T04:52:42.869Z,3.70
2019-05-06T04:55:13.933Z,3.80
2019-05-06T04:57:44.794Z,3.90
2019-05-06T05:00:18.164Z,4.10
2019-05-06T05:02:48.190Z,4.10
2019-05-06T05:05:19.445Z,4.10
2019-05-06T05:07:49.578Z,4.20
2019-05-06T05:10:24.018Z,4.30
2019-05-06T05:13:16.082Z,4.20
2019-05-06T05:16:02.132Z,4.40
2019-05-06T05:18:56.537Z,4.40
2019-05-06T05:21:26.733Z,4.50
2019-05-06T05:23:56.954Z,4.50
2019-05-06T05:26:27.875Z,4.60
2019-05-06T05:28:58.002Z,4.60
2019-05-06T05:31:28.176Z,4.70
2019-05-06T05:33:58.393Z,4.80
2019-05-06T05:36:28.517Z,4.90
2019-05-06T05:38:58.841Z,4.90
2019-05-06T05:41:28.890Z,5.00
2019-05-06T05:44:12.037Z,5.00
2019-05-06T05:46:43.839Z,5.10
2019-05-06T05:49:28.712Z,5.10
2019-05-06T05:51:58.777Z,5.20
2019-05-06T05:54:28.822Z,5.30
2019-05-06T05:56:59.857Z,5.40
2019-05-06T05:59:32.710Z,5.70
2019-05-06T06:02:03.812Z,5.90
2019-05-06T06:04:35.815Z,5.90
2019-05-06T06:07:06.242Z,6.00
2019-05-06T06:09:43.993Z,6.00
2019-05-06T06:12:14.499Z,6.10
2019-05-06T06:14:55.593Z,6.20
2019-05-06T06:17:34.542Z,6.30
2019-05-06T06:20:24.171Z,6.30
2019-05-06T06:22:55.825Z,6.20
2019-05-06T06:25:26.023Z,6.30
2019-05-06T06:27:56.454Z,6.60
2019-05-06T06:30:35.837Z,6.70
2019-05-06T06:33:06.015Z,6.80
2019-05-06T06:35:46.619Z,7.10
2019-05-06T06:38:24.134Z,7.40
2019-05-06T06:40:55.710Z,7.30
2019-05-06T06:43:27.138Z,7.30
2019-05-06T06:45:57.306Z,7.40
2019-05-06T06:48:28.025Z,7.60
2019-05-06T06:50:58.318Z,7.80
2019-05-06T06:53:28.463Z,7.90
2019-05-06T06:56:17.557Z,8.00
2019-05-06T06:59:12.754Z,8.20
2019-05-06T07:01:53.466Z,8.10
2019-05-06T07:04:32.443Z,8.00
2019-05-06T07:07:03.714Z,8.10
2019-05-06T07:09:33.825Z,8.30
2019-05-06T07:12:04.060Z,8.20
2019-05-06T07:14:36.192Z,8.30
2019-05-06T07:17:06.077Z,8.50
2019-05-06T07:19:43.631Z,8.60
2019-05-06T07:22:13.878Z,8.80
2019-05-06T07:24:44.011Z,8.90
2019-05-06T07:27:18.516Z,8.80
2019-05-06T07:29:48.860Z,8.90
2019-05-06T07:32:23.031Z,9.20
2019-05-06T07:34:53.262Z,9.20
2019-05-06T07:37:23.592Z,9.30
2019-05-06T07:39:55.314Z,9.20
2019-05-06T07:42:34.338Z,9.10
2019-05-06T07:45:38.951Z,9.10
2019-05-06T07:48:12.777Z,9.20
2019-05-06T07:50:43.174Z,9.40
2019-05-06T07:53:14.318Z,9.10
2019-05-06T07:55:44.354Z,9.20
2019-05-06T07:58:14.518Z,9.10
2019-05-06T08:00:44.643Z,9.10
2019-05-06T08:03:14.846Z,9.00
2019-05-06T08:05:55.137Z,9.20
2019-05-06T08:08:16.690Z,9.10
2019-05-06T08:10:46.841Z,9.00
2019-05-06T08:13:16.882Z,9.30
2019-05-06T08:15:47.071Z,9.60
2019-05-06T08:18:23.766Z,9.60
2019-05-06T08:20:53.878Z,9.70
2019-05-06T08:23:36.042Z,9.90
2019-05-06T08:26:12.137Z,10.00
2019-05-06T08:28:41.454Z,10.30
2019-05-06T08:31:09.836Z,10.30
2019-05-06T08:33:39.974Z,10.20
2019-05-06T08:36:14.930Z,10.20
2019-05-06T08:38:58.160Z,10.40
2019-05-06T08:41:28.603Z,10.70
2019-05-06T08:43:58.706Z,10.60
2019-05-06T08:46:28.829Z,10.50
2019-05-06T08:48:59.083Z,10.50
2019-05-06T08:51:44.230Z,10.80
2019-05-06T08:54:22.705Z,10.70
2019-05-06T08:56:53.526Z,11.00
2019-05-06T08:59:24.140Z,11.00
2019-05-06T09:01:54.714Z,11.00
2019-05-06T09:04:24.914Z,11.00
2019-05-06T09:06:55.075Z,11.20
2019-05-06T09:09:25.198Z,11.20
2019-05-06T09:11:55.370Z,11.40
2019-05-06T09:14:25.489Z,11.80
2019-05-06T09:16:55.705Z,12.70
2019-05-06T09:19:25.882Z,12.90
2019-05-06T09:21:55.942Z,12.70
2019-05-06T09:24:26.059Z,13.10
2019-05-06T09:27:16.094Z,13.10
2019-05-06T09:29:48.500Z,12.50
2019-05-06T09:32:29.202Z,12.10
2019-05-06T09:35:02.710Z,12.60
2019-05-06T09:37:32.601Z,12.50
2019-05-06T09:40:03.104Z,12.30
2019-05-06T09:42:35.238Z,12.50
2019-05-06T09:45:05.849Z,12.60
2019-05-06T09:47:53.479Z,12.50
2019-05-06T09:50:39.806Z,12.60
2019-05-06T09:53:14.976Z,12.90
2019-05-06T09:56:03.491Z,12.90
2019-05-06T09:58:37.253Z,12.70
2019-05-06T10:01:09.046Z,12.60
2019-05-06T10:03:39.355Z,12.90
2019-05-06T10:06:09.635Z,12.90
2019-05-06T10:08:39.894Z,12.60
2019-05-06T10:11:10.000Z,12.40
2019-05-06T10:13:40.370Z,12.40
2019-05-06T10:16:12.818Z,12.50
2019-05-06T10:18:42.558Z,12.50
2019-05-06T10:21:12.878Z,12.40
2019-05-06T10:23:43.137Z,12.80
2019-05-06T10:26:13.404Z,13.40
2019-05-06T10:28:54.458Z,13.50
2019-05-06T10:31:24.650Z,13.50
2019-05-06T10:34:14.375Z,13.40
2019-05-06T10:37:15.327Z,13.40
2019-05-06T10:39:43.518Z,13.30
2019-05-06T10:42:17.338Z,13.30
2019-05-06T10:45:02.060Z,13.70
2019-05-06T10:47:34.074Z,13.60
2019-05-06T10:50:04.386Z,13.80
2019-05-06T10:52:53.605Z,14.00
2019-05-06T10:55:23.770Z,14.80
2019-05-06T10:57:53.958Z,15.20
2019-05-06T11:00:24.307Z,14.80
2019-05-06T11:03:14.982Z,15.10
2019-05-06T11:05:46.406Z,14.30
2019-05-06T11:08:16.623Z,14.20
2019-05-06T11:10:46.750Z,13.90
2019-05-06T11:13:16.965Z,14.00
2019-05-06T11:15:47.155Z,13.80
2019-05-06T11:18:17.409Z,14.30
2019-05-06T11:20:48.639Z,14.60
2019-05-06T11:23:18.706Z,14.60
2019-05-06T11:25:48.954Z,14.60
2019-05-06T11:28:36.338Z,15.00
2019-05-06T11:31:23.037Z,15.20
2019-05-06T11:34:02.251Z,14.90
2019-05-06T11:36:37.671Z,15.20
2019-05-06T11:39:08.086Z,14.20
2019-05-06T11:41:38.498Z,14.40
2019-05-06T11:44:09.275Z,14.10
2019-05-06T11:46:39.728Z,14.60
2019-05-06T11:49:12.287Z,15.10
2019-05-06T11:51:43.492Z,14.80
2019-05-06T11:54:19.397Z,14.60
2019-05-06T11:56:50.948Z,14.40
2019-05-06T11:59:17.843Z,14.30
2019-05-06T12:01:54.176Z,14.50
2019-05-06T12:04:24.310Z,13.80
2019-05-06T12:07:09.965Z,13.70
2019-05-06T12:09:26.393Z,13.80
2019-05-06T12:11:56.937Z,13.70
2019-05-06T12:14:27.082Z,14.00
2019-05-06T12:16:57.330Z,14.00
2019-05-06T12:19:27.437Z,13.70
2019-05-06T12:21:57.822Z,13.80
2019-05-06T12:24:27.931Z,14.20
2019-05-06T12:26:58.074Z,14.30
2019-05-06T12:29:28.295Z,14.10
2019-05-06T12:32:12.395Z,14.00
2019-05-06T12:34:42.981Z,14.40
2019-05-06T12:37:15.167Z,14.50
2019-05-06T12:39:53.191Z,14.60
2019-05-06T12:42:28.590Z,14.60
2019-05-06T12:45:16.060Z,14.70
2019-05-06T12:47:58.291Z,14.70
2019-05-06T12:50:28.450Z,14.90
2019-05-06T12:52:58.596Z,15.30
2019-05-06T12:55:29.186Z,15.30
2019-05-06T12:57:59.373Z,15.50
2019-05-06T13:00:32.269Z,15.40
2019-05-06T13:03:02.754Z,15.20
2019-05-06T13:05:32.872Z,14.90
2019-05-06T13:08:05.400Z,14.80
2019-05-06T13:10:35.096Z,14.90
2019-05-06T13:13:05.470Z,15.30
2019-05-06T13:15:35.685Z,15.10
2019-05-06T13:18:07.758Z,15.20
2019-05-06T13:20:38.977Z,15.20
2019-05-06T13:23:25.734Z,15.20
2019-05-06T13:25:54.954Z,15.10
2019-05-06T13:28:30.312Z,15.40
2019-05-06T13:31:13.423Z,15.20
2019-05-06T13:33:35.659Z,15.20
2019-05-06T13:36:05.888Z,14.80
2019-05-06T13:38:36.151Z,14.70
2019-05-06T13:41:06.318Z,14.90
2019-05-06T13:43:43.901Z,15.00
2019-05-06T13:46:33.442Z,15.20
2019-05-06T13:49:28.656Z,15.30
2019-05-06T13:52:04.659Z,15.10
2019-05-06T13:54:34.864Z,15.50
2019-05-06T13:57:05.116Z,15.40
2019-05-06T13:59:36.988Z,15.50
2019-05-06T14:02:18.825Z,15.50
2019-05-06T14:04:48.978Z,15.60
2019-05-06T14:07:19.147Z,15.80
2019-05-06T14:09:49.495Z,15.40
2019-05-06T14:12:21.930Z,15.20
2019-05-06T14:14:52.675Z,15.60
2019-05-06T14:17:23.073Z,15.80
2019-05-06T14:19:53.589Z,15.80
2019-05-06T14:22:24.853Z,15.50
2019-05-06T14:25:12.920Z,15.10
2019-05-06T14:27:46.088Z,15.40
2019-05-06T14:30:22.778Z,15.10
2019-05-06T14:32:53.015Z,15.10
2019-05-06T14:35:23.222Z,15.60
2019-05-06T14:37:53.432Z,15.50
2019-05-06T14:40:25.147Z,15.20
2019-05-06T14:42:55.298Z,15.30
2019-05-06T14:45:25.659Z,15.70
2019-05-06T14:47:55.916Z,15.70
2019-05-06T14:50:31.768Z,15.80
2019-05-06T14:52:58.082Z,15.60
2019-05-06T14:55:32.713Z,15.70
2019-05-06T14:58:04.506Z,15.40
2019-05-06T15:00:35.821Z,15.40
2019-05-06T15:03:06.050Z,15.20
2019-05-06T15:05:36.410Z,15.20
2019-05-06T15:08:07.686Z,15.40
2019-05-06T15:10:37.811Z,15.30
2019-05-06T15:13:07.966Z,14.90
2019-05-06T15:15:39.198Z,15.20
2019-05-06T15:18:09.363Z,14.80
2019-05-06T15:20:39.695Z,14.70
2019-05-06T15:23:09.843Z,14.70
2019-05-06T15:25:40.125Z,14.60
2019-05-06T15:28:10.429Z,14.70
2019-05-06T15:30:52.635Z,14.70
2019-05-06T15:33:24.990Z,14.50
2019-05-06T15:36:13.741Z,14.70
2019-05-06T15:38:43.910Z,14.30
2019-05-06T15:41:14.063Z,14.40
2019-05-06T15:43:44.171Z,14.30
2019-05-06T15:46:14.365Z,14.20
2019-05-06T15:48:44.533Z,14.20
2019-05-06T15:51:14.697Z,14.10
2019-05-06T15:53:44.970Z,14.10
2019-05-06T15:56:15.187Z,14.10
2019-05-06T15:58:45.400Z,14.10
2019-05-06T16:01:15.779Z,14.00
2019-05-06T16:03:45.930Z,14.00
2019-05-06T16:06:16.095Z,14.00
2019-05-06T16:08:46.371Z,14.00
2019-05-06T16:11:16.612Z,13.80
2019-05-06T16:13:46.910Z,13.60
2019-05-06T16:16:17.478Z,13.60
2019-05-06T16:18:47.668Z,13.60
2019-05-06T16:21:17.854Z,13.60
2019-05-06T16:23:55.363Z,13.60
2019-05-06T16:26:25.639Z,13.60
2019-05-06T16:28:55.941Z,13.50
2019-05-06T16:31:26.101Z,13.40
2019-05-06T16:33:56.273Z,13.40
2019-05-06T16:36:26.412Z,13.30
2019-05-06T16:38:56.601Z,13.40
2019-05-06T16:41:26.774Z,13.30
2019-05-06T16:43:57.041Z,13.30
2019-05-06T16:46:28.942Z,13.30
2019-05-06T16:48:59.058Z,13.20
2019-05-06T16:51:29.243Z,13.10
2019-05-06T16:53:59.403Z,13.10
2019-05-06T16:56:44.715Z,13.10
2019-05-06T16:59:15.005Z,13.10
2019-05-06T17:01:46.133Z,13.00
2019-05-06T17:04:23.176Z,13.00
2019-05-06T17:06:54.643Z,13.00
2019-05-06T17:09:27.700Z,13.00
2019-05-06T17:11:56.918Z,13.00
2019-05-06T17:14:27.170Z,13.00
2019-05-06T17:16:57.716Z,12.90
2019-05-06T17:19:27.787Z,13.00
2019-05-06T17:21:57.995Z,12.90
2019-05-06T17:24:28.287Z,12.90
2019-05-06T17:26:58.738Z,12.80
2019-05-06T17:29:46.645Z,12.70
2019-05-06T17:32:44.919Z,12.70
2019-05-06T17:35:15.042Z,12.70
2019-05-06T17:37:54.510Z,12.60
2019-05-06T17:40:24.623Z,12.60
2019-05-06T17:43:06.515Z,12.50
2019-05-06T17:45:58.412Z,12.40
2019-05-06T17:48:55.380Z,12.40
2019-05-06T17:51:37.529Z,12.40
2019-05-06T17:54:07.709Z,12.40
2019-05-06T17:56:37.919Z,12.30
2019-05-06T17:59:08.167Z,12.20
2019-05-06T18:01:53.174Z,12.20
2019-05-06T18:04:23.455Z,12.20
2019-05-06T18:06:53.604Z,12.20
2019-05-06T18:09:23.846Z,12.20
2019-05-06T18:11:59.038Z,12.10
2019-05-06T18:14:25.944Z,12.10
2019-05-06T18:16:56.245Z,12.10
2019-05-06T18:19:26.366Z,12.10
2019-05-06T18:21:56.512Z,12.10
2019-05-06T18:24:27.932Z,12.00
2019-05-06T18:26:58.496Z,12.00
2019-05-06T18:29:28.656Z,11.90
2019-05-06T18:31:58.801Z,11.90
2019-05-06T18:34:29.130Z,11.90
2019-05-06T18:36:59.276Z,11.90
2019-05-06T18:39:29.479Z,11.80
2019-05-06T18:42:14.933Z,11.80
2019-05-06T18:44:33.382Z,11.80
2019-05-06T18:47:04.486Z,11.70
2019-05-06T18:49:34.709Z,11.70
2019-05-06T18:52:05.094Z,11.60
2019-05-06T18:54:46.570Z,11.50
2019-05-06T18:57:16.689Z,11.50
2019-05-06T18:59:46.931Z,11.40
2019-05-06T19:02:17.074Z,11.40
2019-05-06T19:05:06.300Z,11.30
2019-05-06T19:07:36.557Z,11.30
2019-05-06T19:10:12.833Z,11.20
2019-05-06T19:12:43.094Z,11.20
2019-05-06T19:15:13.474Z,11.10
2019-05-06T19:17:44.300Z,11.10
2019-05-06T19:20:15.980Z,11.00
2019-05-06T19:22:46.254Z,11.00
2019-05-06T19:25:16.455Z,11.00
2019-05-06T19:27:46.678Z,11.00
2019-05-06T19:30:18.323Z,10.90
2019-05-06T19:32:48.513Z,10.90
2019-05-06T19:35:18.702Z,10.90
2019-05-06T19:37:48.838Z,10.80
2019-05-06T19:40:19.124Z,10.80
2019-05-06T19:42:51.167Z,10.70
2019-05-06T19:45:22.436Z,10.70
2019-05-06T19:47:53.877Z,10.70
2019-05-06T19:50:26.057Z,10.60
2019-05-06T19:52:56.042Z,10.60
2019-05-06T19:55:26.334Z,10.50
2019-05-06T19:57:57.011Z,10.40
2019-05-06T20:00:32.473Z,10.30
2019-05-06T20:03:02.706Z,10.30
2019-05-06T20:05:39.055Z,10.30
2019-05-06T20:08:38.556Z,10.30
2019-05-06T20:11:15.172Z,10.30
2019-05-06T20:13:45.369Z,10.30
2019-05-06T20:16:15.536Z,10.20
2019-05-06T20:18:45.803Z,10.10
2019-05-06T20:21:16.111Z,10.10
2019-05-06T20:23:46.245Z,10.10
2019-05-06T20:26:16.807Z,10.10
2019-05-06T20:28:47.581Z,10.10
2019-05-06T20:31:17.722Z,10.20
2019-05-06T20:33:48.001Z,10.10
2019-05-06T20:36:18.245Z,10.10
2019-05-06T20:38:48.477Z,10.10
2019-05-06T20:41:18.781Z,10.10
2019-05-06T20:43:48.861Z,10.20
2019-05-06T20:46:18.943Z,10.10
2019-05-06T20:48:49.086Z,10.20
2019-05-06T20:51:19.257Z,10.20
2019-05-06T20:53:49.397Z,10.20
2019-05-06T20:56:21.824Z,10.20
2019-05-06T20:58:52.868Z,10.20
2019-05-06T21:01:23.221Z,10.20
2019-05-06T21:03:53.586Z,10.20
2019-05-06T21:06:23.635Z,10.20
2019-05-06T21:08:53.857Z,10.10
2019-05-06T21:11:29.005Z,10.10
2019-05-06T21:13:55.898Z,10.00
2019-05-06T21:16:26.033Z,10.10
2019-05-06T21:18:58.528Z,10.00
2019-05-06T21:21:29.131Z,9.90
2019-05-06T21:23:59.306Z,9.90
2019-05-06T21:26:29.502Z,10.00
2019-05-06T21:28:59.703Z,10.00
2019-05-06T21:31:32.608Z,10.00
2019-05-06T21:34:02.958Z,9.90
2019-05-06T21:36:33.129Z,9.90
2019-05-06T21:39:05.346Z,9.90
2019-05-06T21:41:35.521Z,9.90
2019-05-06T21:44:05.953Z,9.90
2019-05-06T21:46:37.057Z,9.80
2019-05-06T21:49:07.216Z,9.80
2019-05-06T21:51:37.353Z,9.80
2019-05-06T21:54:07.514Z,9.70
2019-05-06T21:56:37.755Z,9.70
2019-05-06T21:59:07.836Z,9.60
2019-05-06T22:01:38.508Z,9.60
2019-05-06T22:04:08.949Z,9.60
2019-05-06T22:06:39.089Z,9.60
2019-05-06T22:09:10.605Z,9.50
2019-05-06T22:11:42.315Z,9.50
2019-05-06T22:14:13.962Z,9.50
2019-05-06T22:16:44.215Z,9.40
2019-05-06T22:19:14.434Z,9.40
2019-05-06T22:22:03.655Z,9.40
2019-05-06T22:24:46.911Z,9.40
2019-05-06T22:27:17.829Z,9.40
2019-05-06T22:29:47.993Z,9.30
2019-05-06T22:32:18.185Z,9.30
2019-05-06T22:34:48.347Z,9.20
2019-05-06T22:37:18.538Z,9.20
2019-05-06T22:39:48.671Z,9.20
2019-05-06T22:42:18.805Z,9.20
2019-05-06T22:44:49.038Z,9.20
2019-05-06T22:47:19.175Z,9.10
2019-05-06T22:49:49.314Z,9.10
2019-05-06T22:52:19.559Z,9.10
2019-05-06T22:54:49.745Z,9.00
2019-05-06T22:57:19.989Z,9.00
2019-05-06T22:59:52.227Z,8.90
2019-05-06T23:02:27.978Z,8.80
2019-05-06T23:04:59.788Z,8.80
2019-05-06T23:07:30.031Z,8.90
2019-05-06T23:10:00.077Z,8.80
2019-05-06T23:12:32.444Z,8.70
2019-05-06T23:15:02.667Z,8.70
2019-05-06T23:17:34.458Z,8.70
2019-05-06T23:20:05.427Z,8.60
2019-05-06T23:22:35.505Z,8.60
2019-05-06T23:25:05.906Z,8.50
2019-05-06T23:27:36.051Z,8.50
2019-05-06T23:30:06.845Z,8.40
2019-05-06T23:32:37.002Z,8.40
2019-05-06T23:35:08.425Z,8.40
2019-05-06T23:38:14.542Z,8.50
2019-05-06T23:41:21.940Z,8.40
2019-05-06T23:44:35.903Z,8.30
2019-05-06T23:47:36.317Z,8.20
2019-05-06T23:50:43.329Z,8.20
2019-05-06T23:53:49.390Z,8.10
2019-05-06T23:56:44.027Z,8.10
2019-05-06T23:59:15.510Z,8.10
